createdAt,value
2022-11-16T00:01:59.839Z,8.38
2022-11-16T00:04:27.760Z,8.25
2022-11-16T00:06:55.473Z,8.30
2022-11-16T00:09:23.222Z,8.68
2022-11-16T00:11:53.685Z,8.63
2022-11-16T00:14:23.088Z,8.65
2022-11-16T00:16:51.374Z,8.58
2022-11-16T00:19:19.473Z,8.68
2022-11-16T00:21:47.125Z,8.67
2022-11-16T00:24:16.623Z,8.72
2022-11-16T00:26:44.491Z,8.63
2022-11-16T00:29:18.437Z,8.80
2022-11-16T00:31:47.502Z,8.72
2022-11-16T00:34:15.092Z,8.61
2022-11-16T00:36:42.685Z,8.70
2022-11-16T00:39:12.257Z,8.58
2022-11-16T00:41:40.298Z,8.62
2022-11-16T00:44:07.950Z,8.66
2022-11-16T00:46:35.924Z,8.60
2022-11-16T00:49:04.251Z,8.72
2022-11-16T00:51:32.577Z,8.78
2022-11-16T00:54:01.201Z,8.67
2022-11-16T00:56:29.175Z,8.79
2022-11-16T00:58:56.874Z,8.70
2022-11-16T01:01:24.977Z,8.68
2022-11-16T01:03:52.889Z,8.58
2022-11-16T01:06:20.678Z,8.66
2022-11-16T01:08:48.752Z,8.72
2022-11-16T01:11:18.309Z,8.54
2022-11-16T01:13:46.373Z,8.49
2022-11-16T01:16:16.244Z,8.45
2022-11-16T01:18:47.799Z,8.59
2022-11-16T01:21:16.018Z,8.62
2022-11-16T01:23:43.795Z,8.69
2022-11-16T01:26:11.548Z,8.57
2022-11-16T01:28:41.048Z,8.49
2022-11-16T01:31:10.123Z,8.67
2022-11-16T01:33:38.205Z,8.48
2022-11-16T01:36:11.082Z,8.50
2022-11-16T01:38:38.764Z,8.59
2022-11-16T01:41:06.758Z,8.73
2022-11-16T01:43:57.543Z,8.59
2022-11-16T01:46:27.026Z,8.60
2022-11-16T01:49:08.090Z,8.62
2022-11-16T01:51:36.743Z,8.12
2022-11-16T01:54:07.423Z,8.24
2022-11-16T01:56:36.999Z,8.26
2022-11-16T01:59:05.797Z,8.05
2022-11-16T02:01:33.955Z,8.16
2022-11-16T02:04:03.374Z,8.13
2022-11-16T02:06:49.865Z,8.14
2022-11-16T02:09:39.859Z,8.19
2022-11-16T02:12:10.630Z,8.09
2022-11-16T02:15:00.575Z,8.23
2022-11-16T02:17:53.570Z,8.11
2022-11-16T02:20:43.623Z,8.05
2022-11-16T02:23:14.030Z,8.04
2022-11-16T02:26:03.728Z,8.13
2022-11-16T02:28:46.428Z,8.09
2022-11-16T02:31:21.148Z,8.05
2022-11-16T02:33:49.790Z,8.15
2022-11-16T02:36:20.927Z,8.19
2022-11-16T02:38:53.251Z,8.17
2022-11-16T02:41:22.359Z,8.19
2022-11-16T02:44:03.512Z,8.18
2022-11-16T02:46:36.798Z,8.09
2022-11-16T02:49:10.493Z,8.05
2022-11-16T02:51:38.911Z,8.08
2022-11-16T02:54:13.267Z,8.07
2022-11-16T02:56:43.580Z,8.17
2022-11-16T02:59:16.522Z,8.07
2022-11-16T03:02:19.438Z,8.18
2022-11-16T03:04:49.598Z,8.20
2022-11-16T03:07:20.583Z,8.07
2022-11-16T03:09:49.031Z,8.23
2022-11-16T03:12:19.955Z,8.01
2022-11-16T03:14:57.042Z,8.20
2022-11-16T03:17:30.304Z,8.11
2022-11-16T03:20:14.158Z,8.10
2022-11-16T03:22:42.951Z,8.25
2022-11-16T03:25:13.192Z,8.16
2022-11-16T03:27:59.724Z,8.13
2022-11-16T03:30:30.056Z,8.36
2022-11-16T03:33:13.418Z,8.18
2022-11-16T03:36:05.659Z,8.19
2022-11-16T03:38:35.690Z,8.17
2022-11-16T03:41:06.878Z,8.08
2022-11-16T03:43:35.844Z,7.96
2022-11-16T03:46:04.888Z,8.05
2022-11-16T03:48:37.161Z,8.08
2022-11-16T03:51:08.540Z,7.95
2022-11-16T03:53:37.248Z,8.18
2022-11-16T03:56:05.233Z,8.09
2022-11-16T03:58:33.401Z,8.24
2022-11-16T04:01:02.283Z,8.19
2022-11-16T04:03:30.315Z,8.23
2022-11-16T04:05:58.736Z,8.01
2022-11-16T04:08:26.380Z,8.06
2022-11-16T04:10:54.324Z,8.01
2022-11-16T04:13:27.124Z,8.06
2022-11-16T04:15:55.071Z,7.95
2022-11-16T04:18:23.821Z,7.74
2022-11-16T04:20:51.721Z,7.83
2022-11-16T04:23:21.306Z,7.85
2022-11-16T04:25:49.936Z,7.81
2022-11-16T04:28:20.495Z,7.75
2022-11-16T04:30:49.749Z,7.87
2022-11-16T04:33:17.735Z,7.81
2022-11-16T04:35:45.488Z,7.85
2022-11-16T04:38:14.168Z,7.80
2022-11-16T04:40:41.795Z,7.85
2022-11-16T04:43:11.676Z,7.67
2022-11-16T04:45:39.699Z,7.57
2022-11-16T04:48:10.623Z,7.61
2022-11-16T04:50:38.988Z,7.84
2022-11-16T04:53:08.167Z,7.63
2022-11-16T04:55:36.893Z,7.79
2022-11-16T04:58:05.452Z,7.68
2022-11-16T05:00:33.361Z,7.77
2022-11-16T05:03:01.932Z,7.88
2022-11-16T05:05:30.166Z,7.88
2022-11-16T05:07:58.322Z,7.82
2022-11-16T05:10:26.603Z,7.75
2022-11-16T05:12:55.078Z,7.79
2022-11-16T05:15:23.320Z,7.80
2022-11-16T05:17:51.382Z,7.77
2022-11-16T05:20:19.623Z,7.83
2022-11-16T05:22:55.200Z,7.94
2022-11-16T05:25:23.551Z,7.75
2022-11-16T05:27:51.738Z,8.10
2022-11-16T05:30:19.500Z,8.01
2022-11-16T05:32:47.322Z,8.05
2022-11-16T05:35:15.664Z,8.00
2022-11-16T05:37:43.689Z,8.15
2022-11-16T05:40:11.701Z,8.32
2022-11-16T05:42:39.972Z,8.20
2022-11-16T05:45:08.147Z,8.25
2022-11-16T05:47:35.702Z,8.24
2022-11-16T05:50:04.025Z,8.26
2022-11-16T05:52:31.985Z,8.24
2022-11-16T05:55:01.140Z,8.38
2022-11-16T05:57:30.144Z,8.28
2022-11-16T05:59:57.782Z,8.23
2022-11-16T06:02:25.414Z,8.20
2022-11-16T06:04:53.313Z,8.31
2022-11-16T06:07:21.589Z,8.36
2022-11-16T06:09:49.521Z,8.26
2022-11-16T06:12:18.462Z,8.29
2022-11-16T06:14:46.074Z,8.23
2022-11-16T06:17:13.727Z,8.28
2022-11-16T06:19:42.076Z,8.09
2022-11-16T06:22:09.712Z,8.16
2022-11-16T06:24:37.308Z,8.25
2022-11-16T06:27:05.195Z,8.17
2022-11-16T06:29:33.550Z,8.24
2022-11-16T06:32:01.360Z,8.21
2022-11-16T06:34:29.238Z,8.38
2022-11-16T06:36:57.205Z,8.38
2022-11-16T06:39:25.004Z,8.38
2022-11-16T06:41:53.111Z,8.43
2022-11-16T06:44:20.932Z,8.31
2022-11-16T06:46:49.932Z,8.33
2022-11-16T06:49:18.708Z,8.59
2022-11-16T06:51:46.756Z,8.47
2022-11-16T06:54:14.442Z,8.45
2022-11-16T06:56:42.316Z,8.56
2022-11-16T06:59:10.070Z,8.46
2022-11-16T07:01:38.201Z,8.39
2022-11-16T07:04:06.424Z,8.67
2022-11-16T07:06:33.974Z,8.24
2022-11-16T07:09:01.786Z,8.25
2022-11-16T07:11:30.017Z,8.37
2022-11-16T07:13:58.102Z,8.27
2022-11-16T07:16:26.432Z,8.38
2022-11-16T07:18:56.358Z,8.56
2022-11-16T07:21:24.046Z,8.50
2022-11-16T07:23:53.156Z,8.70
2022-11-16T07:26:21.789Z,8.49
2022-11-16T07:28:49.954Z,8.52
2022-11-16T07:31:18.418Z,8.77
2022-11-16T07:33:46.979Z,8.80
2022-11-16T07:36:16.804Z,8.84
2022-11-16T07:38:45.061Z,8.40
2022-11-16T07:41:18.818Z,8.41
2022-11-16T07:43:52.817Z,8.29
2022-11-16T07:46:46.593Z,8.78
2022-11-16T07:49:18.588Z,8.58
2022-11-16T07:51:46.949Z,8.57
2022-11-16T07:54:16.372Z,8.54
2022-11-16T07:56:43.998Z,8.81
2022-11-16T07:59:12.556Z,8.40
2022-11-16T08:01:40.784Z,8.42
2022-11-16T08:04:09.866Z,8.50
2022-11-16T08:06:37.998Z,8.52
2022-11-16T08:09:05.794Z,8.55
2022-11-16T08:11:34.135Z,8.54
2022-11-16T08:14:02.066Z,8.63
2022-11-16T08:16:29.909Z,8.77
2022-11-16T08:19:00.479Z,8.66
2022-11-16T08:21:28.642Z,8.81
2022-11-16T08:23:58.750Z,8.54
2022-11-16T08:26:27.927Z,8.57
2022-11-16T08:28:57.009Z,8.54
2022-11-16T08:31:27.256Z,8.59
2022-11-16T08:33:59.903Z,8.46
2022-11-16T08:36:28.017Z,8.69
2022-11-16T08:38:56.220Z,8.76
2022-11-16T08:41:24.397Z,8.84
2022-11-16T08:43:52.243Z,9.31
2022-11-16T08:46:20.876Z,8.81
2022-11-16T08:48:49.440Z,9.09
2022-11-16T08:51:18.901Z,8.85
2022-11-16T08:53:49.543Z,8.92
2022-11-16T08:56:22.262Z,8.75
2022-11-16T08:58:57.854Z,8.76
2022-11-16T09:01:29.408Z,8.70
2022-11-16T09:03:57.408Z,8.89
2022-11-16T09:06:25.750Z,8.76
2022-11-16T09:08:53.696Z,9.08
2022-11-16T09:11:23.323Z,8.87
2022-11-16T09:13:52.503Z,9.03
2022-11-16T09:16:20.998Z,9.07
2022-11-16T09:18:50.199Z,9.04
2022-11-16T09:21:22.053Z,9.11
2022-11-16T09:23:50.603Z,9.54
2022-11-16T09:26:19.027Z,9.57
2022-11-16T09:28:47.439Z,9.33
2022-11-16T09:31:18.996Z,9.28
2022-11-16T09:33:50.690Z,9.19
2022-11-16T09:36:18.884Z,9.26
2022-11-16T09:39:19.158Z,9.10
2022-11-16T09:41:53.556Z,9.20
2022-11-16T09:44:52.954Z,9.33
2022-11-16T09:47:24.247Z,9.07
2022-11-16T09:50:01.614Z,9.11
2022-11-16T09:52:38.841Z,9.36
2022-11-16T09:55:27.979Z,9.34
2022-11-16T09:57:57.069Z,9.32
2022-11-16T10:00:25.758Z,9.40
2022-11-16T10:03:06.467Z,9.40
2022-11-16T10:06:03.044Z,9.68
2022-11-16T10:08:41.240Z,9.48
2022-11-16T10:11:29.237Z,9.53
2022-11-16T10:14:18.814Z,9.49
2022-11-16T10:17:06.925Z,9.82
2022-11-16T10:19:34.823Z,9.79
2022-11-16T10:22:37.654Z,9.74
2022-11-16T10:25:24.059Z,9.90
2022-11-16T10:27:58.840Z,9.76
2022-11-16T10:30:27.314Z,9.71
2022-11-16T10:33:00.991Z,9.69
2022-11-16T10:35:34.454Z,9.60
2022-11-16T10:38:02.564Z,9.71
2022-11-16T10:40:36.921Z,9.92
2022-11-16T10:43:04.335Z,10.06
2022-11-16T10:46:04.467Z,10.02
2022-11-16T10:48:39.997Z,10.12
2022-11-16T10:51:09.093Z,9.88
2022-11-16T10:53:39.087Z,9.95
2022-11-16T10:56:21.134Z,10.11
2022-11-16T10:59:12.834Z,10.23
2022-11-16T11:01:41.468Z,10.08
2022-11-16T11:04:21.254Z,10.06
2022-11-16T11:06:53.531Z,9.93
2022-11-16T11:09:23.254Z,9.70
2022-11-16T11:12:17.967Z,10.03
2022-11-16T11:15:12.610Z,10.08
2022-11-16T11:17:45.579Z,10.11
2022-11-16T11:20:16.048Z,10.25
2022-11-16T11:22:52.282Z,10.18
2022-11-16T11:25:23.893Z,10.10
2022-11-16T11:27:51.480Z,10.26
2022-11-16T11:30:20.561Z,10.30
2022-11-16T11:32:48.835Z,10.33
2022-11-16T11:35:42.929Z,10.13
2022-11-16T11:38:14.891Z,9.99
2022-11-16T11:40:56.106Z,9.98
2022-11-16T11:43:24.544Z,9.88
2022-11-16T11:46:13.938Z,9.78
2022-11-16T11:49:06.466Z,9.83
2022-11-16T11:51:36.834Z,9.88
2022-11-16T11:54:05.248Z,10.11
2022-11-16T11:56:33.353Z,10.04
2022-11-16T11:59:03.482Z,9.88
2022-11-16T12:01:37.443Z,9.87
2022-11-16T12:04:08.189Z,9.89
2022-11-16T12:06:44.069Z,9.98
2022-11-16T12:09:31.341Z,9.90
2022-11-16T12:12:17.715Z,9.89
2022-11-16T12:14:51.583Z,9.89
2022-11-16T12:17:22.079Z,10.00
2022-11-16T12:20:22.317Z,9.97
2022-11-16T12:23:09.175Z,9.87
2022-11-16T12:25:48.270Z,9.93
2022-11-16T12:28:47.127Z,9.89
2022-11-16T12:31:39.382Z,9.84
2022-11-16T12:34:27.439Z,9.87
2022-11-16T12:37:15.056Z,9.71
2022-11-16T12:39:58.440Z,9.70
2022-11-16T12:42:26.341Z,9.76
2022-11-16T12:45:15.321Z,9.72
2022-11-16T12:48:01.807Z,9.76
2022-11-16T12:50:41.157Z,9.77
2022-11-16T12:53:39.197Z,9.72
2022-11-16T12:56:11.244Z,9.58
2022-11-16T12:58:55.646Z,9.73
2022-11-16T13:01:54.061Z,10.16
2022-11-16T13:04:34.027Z,10.10
2022-11-16T13:07:10.631Z,9.87
2022-11-16T13:10:07.266Z,10.03
2022-11-16T13:12:36.289Z,9.80
2022-11-16T13:15:05.252Z,9.75
2022-11-16T13:17:37.170Z,9.66
2022-11-16T13:20:16.960Z,9.74
2022-11-16T13:23:14.378Z,9.61
2022-11-16T13:26:01.651Z,9.65
2022-11-16T13:28:59.381Z,9.45
2022-11-16T13:31:35.416Z,9.56
2022-11-16T13:34:05.974Z,9.56
2022-11-16T13:36:36.653Z,9.48
2022-11-16T13:39:05.715Z,9.36
2022-11-16T13:41:40.637Z,9.37
2022-11-16T13:44:34.852Z,9.31
2022-11-16T13:47:04.786Z,9.41
2022-11-16T13:49:41.498Z,9.31
2022-11-16T13:52:41.001Z,9.26
2022-11-16T13:55:14.403Z,9.36
2022-11-16T13:57:50.678Z,9.37
2022-11-16T14:00:59.301Z,9.30
2022-11-16T14:03:32.937Z,9.30
2022-11-16T14:06:01.147Z,9.36
2022-11-16T14:08:34.780Z,9.33
2022-11-16T14:11:05.426Z,9.42
2022-11-16T14:13:36.377Z,9.23
2022-11-16T14:16:19.005Z,9.34
2022-11-16T14:18:49.828Z,9.30
2022-11-16T14:21:19.986Z,9.29
2022-11-16T14:23:56.882Z,9.44
2022-11-16T14:26:56.753Z,9.33
2022-11-16T14:29:50.364Z,9.30
2022-11-16T14:32:26.294Z,9.26
2022-11-16T14:34:56.284Z,9.28
2022-11-16T14:37:26.685Z,9.38
2022-11-16T14:40:13.392Z,9.25
2022-11-16T14:45:52.257Z,9.27
2022-11-16T14:48:21.441Z,9.21
2022-11-16T14:51:11.538Z,9.22
2022-11-16T14:53:48.202Z,9.20
2022-11-16T14:56:18.083Z,9.22
2022-11-16T14:58:56.996Z,9.36
2022-11-16T15:01:30.283Z,9.30
2022-11-16T15:04:09.237Z,9.19
2022-11-16T15:06:41.947Z,9.21
2022-11-16T15:09:16.871Z,9.14
2022-11-16T15:11:47.709Z,9.10
2022-11-16T15:14:22.462Z,9.07
2022-11-16T15:16:52.127Z,9.07
2022-11-16T15:19:20.542Z,9.06
2022-11-16T15:21:57.303Z,9.10
2022-11-16T15:24:34.022Z,9.05
2022-11-16T15:27:46.787Z,9.04
2022-11-16T15:30:20.539Z,9.08
2022-11-16T15:32:49.871Z,9.00
2022-11-16T15:35:28.403Z,9.04
2022-11-16T15:38:16.809Z,9.09
2022-11-16T15:40:54.125Z,9.09
2022-11-16T15:43:24.220Z,9.03
2022-11-16T15:45:52.994Z,9.17
2022-11-16T15:48:25.128Z,8.98
2022-11-16T15:51:06.122Z,8.98
2022-11-16T15:53:33.925Z,9.01
2022-11-16T15:56:10.109Z,8.97
2022-11-16T15:58:39.554Z,9.07
2022-11-16T16:01:08.677Z,8.97
2022-11-16T16:03:37.734Z,9.04
2022-11-16T16:06:06.483Z,8.98
2022-11-16T16:08:36.231Z,9.02
2022-11-16T16:11:26.970Z,8.92
2022-11-16T16:13:58.785Z,8.87
2022-11-16T16:16:38.189Z,8.95
2022-11-16T16:19:41.607Z,9.02
2022-11-16T16:22:25.161Z,8.99
2022-11-16T16:24:52.856Z,8.93
2022-11-16T16:27:23.190Z,8.96
2022-11-16T16:29:53.072Z,8.90
2022-11-16T16:32:24.902Z,8.87
2022-11-16T16:34:55.013Z,8.89
2022-11-16T16:37:23.534Z,8.90
2022-11-16T16:39:51.305Z,8.97
2022-11-16T16:42:18.936Z,8.92
2022-11-16T16:44:47.555Z,8.90
2022-11-16T16:47:15.435Z,8.91
2022-11-16T16:49:43.292Z,9.03
2022-11-16T16:52:14.404Z,9.00
2022-11-16T16:54:42.173Z,9.05
2022-11-16T16:57:16.967Z,9.00
2022-11-16T16:59:45.701Z,9.05
2022-11-16T17:02:13.936Z,9.00
2022-11-16T17:04:41.677Z,9.03
2022-11-16T17:07:10.562Z,8.99
2022-11-16T17:09:38.357Z,9.01
2022-11-16T17:12:07.153Z,9.02
2022-11-16T17:14:35.068Z,8.93
2022-11-16T17:17:03.795Z,8.99
2022-11-16T17:19:32.829Z,8.97
2022-11-16T17:22:01.092Z,8.95
2022-11-16T17:24:28.758Z,8.95
2022-11-16T17:26:56.575Z,8.99
2022-11-16T17:29:24.583Z,9.01
2022-11-16T17:31:52.207Z,8.94
2022-11-16T17:34:20.053Z,8.95
2022-11-16T17:36:49.904Z,8.93
2022-11-16T17:39:17.989Z,9.02
2022-11-16T17:41:45.754Z,8.93
2022-11-16T17:44:20.163Z,9.01
2022-11-16T17:46:49.498Z,8.99
2022-11-16T17:49:17.722Z,9.11
2022-11-16T17:51:45.979Z,9.02
2022-11-16T17:54:13.940Z,9.05
2022-11-16T17:56:42.149Z,8.98
2022-11-16T17:59:09.980Z,8.97
2022-11-16T18:01:37.845Z,9.02
2022-11-16T18:04:05.987Z,9.01
2022-11-16T18:06:34.035Z,9.08
2022-11-16T18:09:03.297Z,8.96
2022-11-16T18:11:31.283Z,9.04
2022-11-16T18:14:00.725Z,9.02
2022-11-16T18:16:30.699Z,8.87
2022-11-16T18:19:04.657Z,8.87
2022-11-16T18:21:38.715Z,8.93
2022-11-16T18:24:07.486Z,8.91
2022-11-16T18:26:35.546Z,8.91
2022-11-16T18:29:04.509Z,9.27
2022-11-16T18:31:33.186Z,8.97
2022-11-16T18:34:01.454Z,9.33
2022-11-16T18:36:29.183Z,9.05
2022-11-16T18:38:57.491Z,8.90
2022-11-16T18:41:25.679Z,8.92
2022-11-16T18:43:57.133Z,8.87
2022-11-16T18:46:34.224Z,8.96
2022-11-16T18:49:02.328Z,8.79
2022-11-16T18:51:30.563Z,8.87
2022-11-16T18:53:58.168Z,9.00
2022-11-16T18:56:26.300Z,9.04
2022-11-16T18:58:54.917Z,9.05
2022-11-16T19:01:24.942Z,9.02
2022-11-16T19:03:54.018Z,9.16
2022-11-16T19:06:23.136Z,9.47
2022-11-16T19:08:55.983Z,8.97
2022-11-16T19:11:25.490Z,8.83
2022-11-16T19:13:58.514Z,8.70
2022-11-16T19:16:27.020Z,8.81
2022-11-16T19:18:55.183Z,8.85
2022-11-16T19:21:23.366Z,8.80
2022-11-16T19:23:53.652Z,8.93
2022-11-16T19:26:23.942Z,8.83
2022-11-16T19:28:52.763Z,8.72
2022-11-16T19:31:21.717Z,9.01
2022-11-16T19:33:59.089Z,9.22
2022-11-16T19:36:28.388Z,9.14
2022-11-16T19:38:56.121Z,8.68
2022-11-16T19:41:24.596Z,8.65
2022-11-16T19:43:53.693Z,8.58
2022-11-16T19:46:21.497Z,8.65
2022-11-16T19:48:50.971Z,8.52
2022-11-16T19:51:22.651Z,8.47
2022-11-16T19:53:50.643Z,8.52
2022-11-16T19:56:20.594Z,8.46
2022-11-16T19:58:48.905Z,8.48
2022-11-16T20:01:25.226Z,8.49
2022-11-16T20:03:54.733Z,8.63
2022-11-16T20:06:25.382Z,8.59
2022-11-16T20:08:56.046Z,8.50
2022-11-16T20:11:29.009Z,8.52
2022-11-16T20:13:58.167Z,8.60
2022-11-16T20:16:32.836Z,8.60
2022-11-16T20:19:06.344Z,8.67
2022-11-16T20:21:43.709Z,8.66
2022-11-16T20:24:15.804Z,8.73
2022-11-16T20:26:48.174Z,8.66
2022-11-16T20:29:17.661Z,8.74
2022-11-16T20:31:46.912Z,8.64
2022-11-16T20:34:16.455Z,8.67
2022-11-16T20:36:45.744Z,8.67
2022-11-16T20:39:29.495Z,8.70
2022-11-16T20:41:57.499Z,8.75
2022-11-16T20:44:25.351Z,8.68
2022-11-16T20:46:53.167Z,8.82
2022-11-16T20:49:21.302Z,8.67
2022-11-16T20:51:49.161Z,8.73
2022-11-16T20:54:17.112Z,8.89
2022-11-16T20:56:45.216Z,8.75
2022-11-16T20:59:13.065Z,8.74
2022-11-16T21:01:40.765Z,8.74
2022-11-16T21:04:08.912Z,8.84
2022-11-16T21:06:36.477Z,8.71
2022-11-16T21:09:04.310Z,8.97
2022-11-16T21:11:33.775Z,9.00
2022-11-16T21:14:01.671Z,9.02
2022-11-16T21:16:30.774Z,8.99
2022-11-16T21:19:01.391Z,9.11
2022-11-16T21:21:29.408Z,9.06
2022-11-16T21:23:57.036Z,8.93
2022-11-16T21:26:29.503Z,9.02
2022-11-16T21:28:58.281Z,9.03
2022-11-16T21:31:28.184Z,8.93
2022-11-16T21:33:57.790Z,8.97
2022-11-16T21:36:26.921Z,8.99
2022-11-16T21:38:55.307Z,9.07
2022-11-16T21:41:23.869Z,9.16
2022-11-16T21:43:51.673Z,9.09
2022-11-16T21:46:24.471Z,9.07
2022-11-16T21:48:52.227Z,9.19
2022-11-16T21:51:21.722Z,9.04
2022-11-16T21:53:49.570Z,8.96
2022-11-16T21:56:19.324Z,9.13
2022-11-16T21:58:47.364Z,9.09
2022-11-16T22:01:16.526Z,9.12
2022-11-16T22:03:44.956Z,9.11
2022-11-16T22:06:14.298Z,9.09
2022-11-16T22:08:42.312Z,8.94
2022-11-16T22:11:10.592Z,9.11
2022-11-16T22:13:38.397Z,8.96
2022-11-16T22:16:10.227Z,8.95
2022-11-16T22:18:38.813Z,8.69
2022-11-16T22:21:06.545Z,8.91
2022-11-16T22:23:34.662Z,8.70
2022-11-16T22:26:05.568Z,8.75
2022-11-16T22:28:33.604Z,8.80
2022-11-16T22:31:12.577Z,8.80
2022-11-16T22:33:41.202Z,8.96
2022-11-16T22:36:12.176Z,9.09
2022-11-16T22:38:39.998Z,9.14
2022-11-16T22:41:07.661Z,9.19
2022-11-16T22:43:35.740Z,9.05
2022-11-16T22:46:05.324Z,8.99
2022-11-16T22:48:34.970Z,8.89
2022-11-16T22:51:12.486Z,8.93
2022-11-16T22:53:40.555Z,8.89
2022-11-16T22:56:09.561Z,8.86
2022-11-16T22:58:38.355Z,9.11
2022-11-16T23:01:08.599Z,8.97
2022-11-16T23:03:37.372Z,8.87
2022-11-16T23:06:06.136Z,8.85
2022-11-16T23:08:35.506Z,8.91
2022-11-16T23:11:04.613Z,8.99
2022-11-16T23:13:32.453Z,9.15
2022-11-16T23:16:04.398Z,9.13
2022-11-16T23:18:32.131Z,9.14
2022-11-16T23:21:00.584Z,9.02
2022-11-16T23:23:28.321Z,9.10
2022-11-16T23:25:56.090Z,9.02
2022-11-16T23:28:24.068Z,9.00
2022-11-16T23:30:51.864Z,9.01
2022-11-16T23:33:19.753Z,8.92
2022-11-16T23:35:47.629Z,8.73
2022-11-16T23:38:15.272Z,8.90
2022-11-16T23:40:43.111Z,8.97
2022-11-16T23:43:11.138Z,8.91
2022-11-16T23:45:40.104Z,8.66
2022-11-16T23:48:08.948Z,8.85
2022-11-16T23:50:37.542Z,8.98
2022-11-16T23:53:06.237Z,9.05
2022-11-16T23:55:34.682Z,8.97
2022-11-16T23:58:03.585Z,9.00
